Pagina principale
METAR-TAF:

METAR-TAF

Aeroporti :

Bolzano, Italia

latitudine: 46-28N, longitudine: 011-20E, altezza: 262 m

Osservazione

Il bollettino è stato emesso 48 minuti fa, alle 12:50 UTC
Vento 5 kt da sud/sud-est, variando fra est e sud/sud-ovest
Temperature 16°C
Umidità 59%
Pressione 1011 hPa
Visibilità 10 km o più
Poco nuvoloso ad un'altezza di 9000 ft
Cielo coperto ad un'altezza di 13000 ft

METAR: LIPB 191250Z 16005KT 080V200 9999 FEW090 OVC130 16/08 Q1011

Ora: 15:38 (13:38 UTC)

Previsione

Il bollettino è stato emesso 2 ore e 38 minuti fa, alle 11:00 UTC
Previsione valida dal 19 alle 12 UTC al 20 alle 12 UTC
Vento 5 kt da direzioni variabili
Visibilità 10 km o più
Nuvoloso ad un'altezza di 5000 ft
Temporaneamente
dal 19 alle 12 UTC al 19 alle 18 UTC
pioggia

TAF: LIPB 191100Z 1912/2012 VRB05KT 9999 BKN050 TEMPO 1912/1918 RA

Osservazioni e previsioni meteorologiche di più di 4000 aeroporti (messaggi METAR e TAF).

Le stazioni disponibili sono rappresentate dai dischi gialli e rossi sulla carta.

Puntare il mouse per vedere il nome della stazione.

Clicca sopra per visualizzare le osservazioni e previsioni meteorologiche.

Per cambiare la mappa : fare clic sui pulsanti verdi con una croce nera per ingrandire, il pulsante verde con un trattino per diminuire, o sulla freccia verde per le mappe adiacenti.


METAR-TAF: